Ramon Margalef — EAEF — position and weather

sailwx.info

Track history (hours):
 
Tides and Currents Weather Stations Pressure Air Temp Water Temp Dewpoint Dewpoint Depression Visibility Wind Speed Wind Dir Waves Ship Positions

Ramon Margalef

Last reported at 2018-Feb-19 00:00 UTC. Time now 2018-Feb-19 00:04 UTC.
Position N 41°00' E 001°35'.

Length 46 m; draft 5.5 m.

Type: Other ship. MMSI: 224511000.

Date/timePositionNaut miles runAvg speedWind from/ knotsBaromVisibWave heightAir tempDewpointWater temp
2018-Feb-19 00:00N 41°00' E 001°35'3 5.9
2018-Feb-18 23:30N 41°02' E 001°39'3 5.7
2018-Feb-18 23:00N 41°03' E 001°42'3 5.8
2018-Feb-18 22:30N 41°04' E 001°46'3 5.6
2018-Feb-18 22:00N 41°06' E 001°49'3 5.5
2018-Feb-18 21:30N 41°07' E 001°52'3 5.7
2018-Feb-18 21:00N 41°08' E 001°56'3 5.9
2018-Feb-18 20:31N 41°10' E 001°59'3 5.8
2018-Feb-18 20:00N 41°11' E 002°02'3 5.4
2018-Feb-18 19:30N 41°12' E 002°06'3 5.6
2018-Feb-18 19:01N 41°13' E 002°09'3 5.7
2018-Feb-18 18:31N 41°15' E 002°12'2 4.8
2018-Feb-18 18:00N 41°17' E 002°13'2 4.5
2018-Feb-18 17:31N 41°19' E 002°13'4 8.1
2018-Feb-18 17:00N 41°16' E 002°16'2 3.7
2018-Feb-18 16:30N 41°15' E 002°18'0 0.1
2018-Feb-18 16:01N 41°15' E 002°18'510.8
2018-Feb-18 15:31N 41°11' E 002°23'2 1.7
2018-Feb-18 14:36N 41°10' E 002°25'1 6.7
2018-Feb-18 14:30N 41°09' E 002°25'  
2018-Feb-16 00:52N 39°21' E 003°45'4 8.5
2018-Feb-16 00:26N 39°19' E 003°41'4 8.9
2018-Feb-15 23:59N 39°17' E 003°37'4 9.1
2018-Feb-15 23:30N 39°14' E 003°33'4 9.0
2018-Feb-15 23:00N 39°11' E 003°28'4 8.7
2018-Feb-15 22:30N 39°08' E 003°24'4 8.7
2018-Feb-15 22:00N 39°06' E 003°19'5 9.3
2018-Feb-15 21:30N 39°03' E 003°15'4 8.6
2018-Feb-15 21:00N 39°00' E 003°10'0 0.0
2018-Feb-15 20:30N 39°00' E 003°10'0 0.0
2018-Feb-15 19:57N 39°00' E 003°10'0 0.0
2018-Feb-15 19:29N 39°00' E 003°10'1 1.1
2018-Feb-15 19:00N 39°00' E 003°10'611.4
2018-Feb-15 18:29N 39°03' E 003°03'611.7
2018-Feb-15 18:00N 39°06' E 002°57'610.8
2018-Feb-15 17:28N 39°10' E 002°52'511.2
2018-Feb-15 16:59N 39°15' E 002°48'511.3
2018-Feb-15 16:30N 39°20' E 002°45'611.1
2018-Feb-15 16:00N 39°25' E 002°42'611.2
2018-Feb-15 15:30N 39°30' E 002°40'4 7.5
2018-Feb-15 14:58N 39°34' E 002°38'0 0.0
2018-Feb-15 14:28N 39°34' E 002°38'0 0.0
2018-Feb-15 13:58N 39°34' E 002°38'0 0.0
2018-Feb-15 13:29N 39°34' E 002°38'0 0.0
2018-Feb-15 12:59N 39°34' E 002°38'0 0.0
2018-Feb-15 12:29N 39°34' E 002°38'0 0.0
2018-Feb-15 12:00N 39°34' E 002°38'0 0.0
2018-Feb-15 11:30N 39°34' E 002°38'0 0.0
2018-Feb-15 11:00N 39°34' E 002°38'0 0.0
2018-Feb-15 10:28N 39°34' E 002°38'0 0.0
2018-Feb-15 09:58N 39°34' E 002°38'0 0.0
2018-Feb-15 09:28N 39°34' E 002°38'0 0.0
2018-Feb-15 08:59N 39°34' E 002°38'0 0.0
2018-Feb-15 08:29N 39°34' E 002°38'0 0.0
2018-Feb-15 07:59N 39°34' E 002°38'0 0.0
2018-Feb-15 07:30N 39°34' E 002°38'0 0.0
2018-Feb-15 07:00N 39°34' E 002°38'0 0.0
2018-Feb-15 06:25N 39°34' E 002°38'0 0.0
2018-Feb-15 05:58N 39°34' E 002°38'0 0.0
2018-Feb-15 05:28N 39°34' E 002°38'0 0.0
2018-Feb-15 04:59N 39°34' E 002°38'0 0.0
2018-Feb-15 04:29N 39°34' E 002°38'0 0.0
2018-Feb-15 03:59N 39°34' E 002°38'0 0.0
2018-Feb-15 03:30N 39°34' E 002°38'0 0.0
2018-Feb-15 03:00N 39°34' E 002°38'0 0.0
2018-Feb-15 02:30N 39°34' E 002°38'0 0.0
2018-Feb-15 02:00N 39°34' E 002°38'0 0.0
2018-Feb-15 01:28N 39°34' E 002°38'0 0.0
2018-Feb-15 00:58N 39°34' E 002°38'0 0.0
2018-Feb-15 00:29N 39°34' E 002°38'0 0.0
2018-Feb-14 23:59N 39°34' E 002°38'0 0.0
2018-Feb-14 23:29N 39°34' E 002°38'0 0.0
2018-Feb-14 23:00N 39°34' E 002°38'0 0.0
2018-Feb-14 22:30N 39°34' E 002°38'0 0.0
2018-Feb-14 22:00N 39°34' E 002°38'0 0.0
2018-Feb-14 21:31N 39°34' E 002°38'0 0.0
2018-Feb-14 20:58N 39°34' E 002°38'0 0.0
2018-Feb-14 20:28N 39°34' E 002°38'0 0.0
2018-Feb-14 19:59N 39°34' E 002°38'0 0.0
2018-Feb-14 19:29N 39°34' E 002°38'0 0.0
2018-Feb-14 18:59N 39°34' E 002°38'0 0.0
2018-Feb-14 18:30N 39°34' E 002°38'0 0.0
2018-Feb-14 18:00N 39°34' E 002°38'0 0.0
2018-Feb-14 17:27N 39°34' E 002°38'0 0.0
2018-Feb-14 17:01N 39°34' E 002°38'0 0.0
2018-Feb-14 16:28N 39°34' E 002°38'0 0.0
2018-Feb-14 15:58N 39°34' E 002°38'0 0.0
2018-Feb-14 15:29N 39°34' E 002°38'0 0.8
2018-Feb-14 15:00N 39°33' E 002°38'5 9.4
2018-Feb-14 14:29N 39°29' E 002°35'511.4
2018-Feb-14 14:00N 39°25' E 002°30'611.6
2018-Feb-14 13:30N 39°24' E 002°23'3111.2
2018-Feb-14 10:46N 39°13' E 001°46'311.4
2018-Feb-14 10:29N 39°12' E 001°42'611.7
2018-Feb-14 10:00N 39°10' E 001°35'1 2.6
2018-Feb-14 09:30N 39°10' E 001°33'12211.0
2018-Feb-13 22:25N 37°45' W 000°18'1011.9
2018-Feb-13 21:37N 37°38' W 000°26'112.1
2018-Feb-13 21:30N 37°37' W 000°27'612.0
2018-Feb-13 21:00N 37°32' W 000°32'1111.5
2018-Feb-13 20:02N 37°26' W 000°43'011.2
2018-Feb-13 20:00N 37°26' W 000°44'510.8
2018-Feb-13 19:30N 37°26' W 000°51'510.9
2018-Feb-13 19:00N 37°28' W 000°57'2 0.1
2018-Feb-12 16:03N 37°31' W 000°56'010.5
2018-Feb-12 16:00N 37°31' W 000°55'510.4
2018-Feb-12 15:30N 37°31' W 000°49'510.4
2018-Feb-12 14:59N 37°32' W 000°42'510.7
2018-Feb-12 14:30N 37°33' W 000°36'510.4
2018-Feb-12 14:00N 37°37' W 000°31'510.4
2018-Feb-12 13:30N 37°40' W 000°26'510.6
2018-Feb-12 13:00N 37°40' W 000°19'7 0.8
2018-Feb-12 04:31N 37°41' W 000°10'0 5.3
2018-Feb-12 04:28N 37°41' W 000°11'2 5.3
2018-Feb-12 04:00N 37°41' W 000°14'1 1.5
2018-Feb-12 03:30N 37°41' W 000°14'2 0.0
2018-Feb-10 00:45N 37°40' W 000°14'  
Track history (hours):
 
Tides and Currents Weather Stations Pressure Air Temp Water Temp Dewpoint Dewpoint Depression Visibility Wind Speed Wind Dir Waves Ship Positions

Ramon Margalef

Last reported at 2018-Feb-19 00:00 UTC. Time now 2018-Feb-19 00:04 UTC.
Position N 41°00' E 001°35'.

Length 46 m; draft 5.5 m.

Type: Other ship. MMSI: 224511000.

Date/timePositionNaut miles runAvg speedWind from/ knotsBaromVisibWave heightAir tempDewpointWater temp
2018-Feb-19 00:00N 41°00' E 001°35'3 5.9
2018-Feb-18 23:30N 41°02' E 001°39'3 5.7
2018-Feb-18 23:00N 41°03' E 001°42'3 5.8
2018-Feb-18 22:30N 41°04' E 001°46'3 5.6
2018-Feb-18 22:00N 41°06' E 001°49'3 5.5
2018-Feb-18 21:30N 41°07' E 001°52'3 5.7
2018-Feb-18 21:00N 41°08' E 001°56'3 5.9
2018-Feb-18 20:31N 41°10' E 001°59'3 5.8
2018-Feb-18 20:00N 41°11' E 002°02'3 5.4
2018-Feb-18 19:30N 41°12' E 002°06'3 5.6
2018-Feb-18 19:01N 41°13' E 002°09'3 5.7
2018-Feb-18 18:31N 41°15' E 002°12'2 4.8
2018-Feb-18 18:00N 41°17' E 002°13'2 4.5
2018-Feb-18 17:31N 41°19' E 002°13'4 8.1
2018-Feb-18 17:00N 41°16' E 002°16'2 3.7
2018-Feb-18 16:30N 41°15' E 002°18'0 0.1
2018-Feb-18 16:01N 41°15' E 002°18'510.8
2018-Feb-18 15:31N 41°11' E 002°23'2 1.7
2018-Feb-18 14:36N 41°10' E 002°25'1 6.7
2018-Feb-18 14:30N 41°09' E 002°25'  
2018-Feb-16 00:52N 39°21' E 003°45'4 8.5
2018-Feb-16 00:26N 39°19' E 003°41'4 8.9
2018-Feb-15 23:59N 39°17' E 003°37'4 9.1
2018-Feb-15 23:30N 39°14' E 003°33'4 9.0
2018-Feb-15 23:00N 39°11' E 003°28'4 8.7
2018-Feb-15 22:30N 39°08' E 003°24'4 8.7
2018-Feb-15 22:00N 39°06' E 003°19'5 9.3
2018-Feb-15 21:30N 39°03' E 003°15'4 8.6
2018-Feb-15 21:00N 39°00' E 003°10'0 0.0
2018-Feb-15 20:30N 39°00' E 003°10'0 0.0
2018-Feb-15 19:57N 39°00' E 003°10'0 0.0
2018-Feb-15 19:29N 39°00' E 003°10'1 1.1
2018-Feb-15 19:00N 39°00' E 003°10'611.4
2018-Feb-15 18:29N 39°03' E 003°03'611.7
2018-Feb-15 18:00N 39°06' E 002°57'610.8
2018-Feb-15 17:28N 39°10' E 002°52'511.2
2018-Feb-15 16:59N 39°15' E 002°48'511.3
2018-Feb-15 16:30N 39°20' E 002°45'611.1
2018-Feb-15 16:00N 39°25' E 002°42'611.2
2018-Feb-15 15:30N 39°30' E 002°40'4 7.5
2018-Feb-15 14:58N 39°34' E 002°38'0 0.0
2018-Feb-15 14:28N 39°34' E 002°38'0 0.0
2018-Feb-15 13:58N 39°34' E 002°38'0 0.0
2018-Feb-15 13:29N 39°34' E 002°38'0 0.0
2018-Feb-15 12:59N 39°34' E 002°38'0 0.0
2018-Feb-15 12:29N 39°34' E 002°38'0 0.0
2018-Feb-15 12:00N 39°34' E 002°38'0 0.0
2018-Feb-15 11:30N 39°34' E 002°38'0 0.0
2018-Feb-15 11:00N 39°34' E 002°38'0 0.0
2018-Feb-15 10:28N 39°34' E 002°38'0 0.0
2018-Feb-15 09:58N 39°34' E 002°38'0 0.0
2018-Feb-15 09:28N 39°34' E 002°38'0 0.0
2018-Feb-15 08:59N 39°34' E 002°38'0 0.0
2018-Feb-15 08:29N 39°34' E 002°38'0 0.0
2018-Feb-15 07:59N 39°34' E 002°38'0 0.0
2018-Feb-15 07:30N 39°34' E 002°38'0 0.0
2018-Feb-15 07:00N 39°34' E 002°38'0 0.0
2018-Feb-15 06:25N 39°34' E 002°38'0 0.0
2018-Feb-15 05:58N 39°34' E 002°38'0 0.0
2018-Feb-15 05:28N 39°34' E 002°38'0 0.0
2018-Feb-15 04:59N 39°34' E 002°38'0 0.0
2018-Feb-15 04:29N 39°34' E 002°38'0 0.0
2018-Feb-15 03:59N 39°34' E 002°38'0 0.0
2018-Feb-15 03:30N 39°34' E 002°38'0 0.0
2018-Feb-15 03:00N 39°34' E 002°38'0 0.0
2018-Feb-15 02:30N 39°34' E 002°38'0 0.0
2018-Feb-15 02:00N 39°34' E 002°38'0 0.0
2018-Feb-15 01:28N 39°34' E 002°38'0 0.0
2018-Feb-15 00:58N 39°34' E 002°38'0 0.0
2018-Feb-15 00:29N 39°34' E 002°38'0 0.0
2018-Feb-14 23:59N 39°34' E 002°38'0 0.0
2018-Feb-14 23:29N 39°34' E 002°38'0 0.0
2018-Feb-14 23:00N 39°34' E 002°38'0 0.0
2018-Feb-14 22:30N 39°34' E 002°38'0 0.0
2018-Feb-14 22:00N 39°34' E 002°38'0 0.0
2018-Feb-14 21:31N 39°34' E 002°38'0 0.0
2018-Feb-14 20:58N 39°34' E 002°38'0 0.0
2018-Feb-14 20:28N 39°34' E 002°38'0 0.0
2018-Feb-14 19:59N 39°34' E 002°38'0 0.0
2018-Feb-14 19:29N 39°34' E 002°38'0 0.0
2018-Feb-14 18:59N 39°34' E 002°38'0 0.0
2018-Feb-14 18:30N 39°34' E 002°38'0 0.0
2018-Feb-14 18:00N 39°34' E 002°38'0 0.0
2018-Feb-14 17:27N 39°34' E 002°38'0 0.0
2018-Feb-14 17:01N 39°34' E 002°38'0 0.0
2018-Feb-14 16:28N 39°34' E 002°38'0 0.0
2018-Feb-14 15:58N 39°34' E 002°38'0 0.0
2018-Feb-14 15:29N 39°34' E 002°38'0 0.8
2018-Feb-14 15:00N 39°33' E 002°38'5 9.4
2018-Feb-14 14:29N 39°29' E 002°35'511.4
2018-Feb-14 14:00N 39°25' E 002°30'611.6
2018-Feb-14 13:30N 39°24' E 002°23'3111.2
2018-Feb-14 10:46N 39°13' E 001°46'311.4
2018-Feb-14 10:29N 39°12' E 001°42'611.7
2018-Feb-14 10:00N 39°10' E 001°35'1 2.6
2018-Feb-14 09:30N 39°10' E 001°33'12211.0
2018-Feb-13 22:25N 37°45' W 000°18'1011.9
2018-Feb-13 21:37N 37°38' W 000°26'112.1
2018-Feb-13 21:30N 37°37' W 000°27'612.0
2018-Feb-13 21:00N 37°32' W 000°32'1111.5
2018-Feb-13 20:02N 37°26' W 000°43'011.2
2018-Feb-13 20:00N 37°26' W 000°44'510.8
2018-Feb-13 19:30N 37°26' W 000°51'510.9
2018-Feb-13 19:00N 37°28' W 000°57'2 0.1
2018-Feb-12 16:03N 37°31' W 000°56'010.5
2018-Feb-12 16:00N 37°31' W 000°55'510.4
2018-Feb-12 15:30N 37°31' W 000°49'510.4
2018-Feb-12 14:59N 37°32' W 000°42'510.7
2018-Feb-12 14:30N 37°33' W 000°36'510.4
2018-Feb-12 14:00N 37°37' W 000°31'510.4
2018-Feb-12 13:30N 37°40' W 000°26'510.6
2018-Feb-12 13:00N 37°40' W 000°19'7 0.8
2018-Feb-12 04:31N 37°41' W 000°10'0 5.3
2018-Feb-12 04:28N 37°41' W 000°11'2 5.3
2018-Feb-12 04:00N 37°41' W 000°14'1 1.5
2018-Feb-12 03:30N 37°41' W 000°14'2 0.0
2018-Feb-10 00:45N 37°40' W 000°14'  

Dump ship's entire track history